EW0531 Weather Reports


Display with metric or nautical units.
time (UTC)temp
F
wind
direction
speed
MPH
gust
MPH
rain 1hr
in
rain 24hr
in
rain mn
in
humidity
%
barometer
mb
20200402101534 52 342 5.0 13.0 0.00 0.00 0.00 70 1018.5
20200402100045 53 297 5.0 13.0 0.00 0.00 0.00 71 1018.6
20200402094520 51 346 7.0 16.0 0.00 0.00 0.00 71 1018.5
20200402093028 51 317 4.0 11.0 0.00 0.00 0.00 74 1018.7
20200402091545 49 325 6.0 11.0 0.00 0.00 0.00 76 1018.8
20200402090019 48 323 6.0 12.0 0.00 0.00 0.00 77 1018.8
20200402084508 48 320 7.0 13.0 0.00 0.00 0.00 78 1018.9
20200402083004 47 287 4.0 11.0 0.00 0.00 0.00 79 1018.9
20200402081728 47 312 6.0 12.0 0.00 0.00 0.00 79 1019.0
20200402080216 46 304 5.0 13.0 0.00 0.00 0.00 79 1019.0
20200402074626 46 282 3.0 9.0 0.00 0.00 0.00 80 1019.0
20200402073216 46 309 3.0 8.0 0.00 0.00 0.00 80 1019.1
20200402071639 45 293 4.0 8.0 0.00 0.00 0.00 80 1019.0
20200402070104 45 311 1.0 5.0 0.00 0.00 0.00 80 1019.3
20200402064914 45 281 0.0 5.0 0.00 0.00 0.00 80 1019.2
20200402063858 45 305 1.0 3.0 0.00 0.00 0.00 80 1019.3
20200402063005 44 290 1.0 3.0 0.00 0.00 0.00 80 1019.4
20200402062825 45 290 0.0 2.0 0.00 0.00 0.00 80 1019.2
20200402061808 45 290 0.0 1.0 0.00 0.00 0.00 80 1019.2
20200402060113 44 314 1.0 4.0 0.00 0.00 0.00 80 1019.4
20200402054606 44 302 2.0 7.0 0.00 0.00 0.00 79 1019.4
20200402053120 44 309 2.0 8.0 0.00 0.00 0.00 79 1019.4
20200402051620 45 325 3.0 11.0 0.00 0.00 0.00 78 1019.5
20200402050124 45 311 6.0 11.0 0.00 0.00 0.00 77 1019.4
20200402044543 45 321 4.0 8.0 0.00 0.00 0.00 75 1019.6
20200402043110 44 315 2.0 5.0 0.00 0.00 0.00 74 1019.6
20200402041547 44 308 0.0 3.0 0.00 0.00 0.00 74 1019.6
20200402040051 44 290 1.0 4.0 0.00 0.00 0.00 73 1019.7
20200402034616 44 301 1.0 3.0 0.00 0.00 0.00 73 1019.9
20200402033102 44 292 1.0 4.0 0.00 0.00 0.00 72 1019.9
20200402031536 44 309 1.0 4.0 0.00 0.00 0.00 71 1020.0
20200402030039 44 302 0.0 3.0 0.00 0.00 0.00 70 1020.0
20200402024647 45 307 1.0 5.0 0.00 0.00 0.00 70 1020.3
20200402023104 45 311 0.0 4.0 0.00 0.00 0.00 70 1020.3
20200402021519 45 323 1.0 4.0 0.00 0.00 0.00 70 1020.4
20200402020026 45 319 2.0 3.0 0.00 0.00 0.00 70 1020.4
20200402014522 45 339 0.0 2.0 0.00 0.00 0.00 69 1020.4
20200402013034 45 339 0.0 3.0 0.00 0.00 0.00 70 1020.6
20200402011530 45 360 0.0 4.0 0.00 0.00 0.00 71 1020.7
20200402010016 45 340 2.0 5.0 0.00 0.00 0.00 72 1020.9
20200402004524 45 334 1.0 5.0 0.00 0.00 0.00 72 1020.9
20200402003020 45 333 3.0 5.0 0.00 0.00 0.00 72 1021.0
20200402001514 45 311 2.0 5.0 0.00 0.00 0.00 72 1021.1
20200401234501 45 324 1.0 5.0 0.00 0.00 0.00 72 1021.3
20200401233211 45 323 2.0 5.0 0.00 0.00 0.00 72 1021.3
20200401231615 45 334 2.0 5.0 0.00 0.00 0.00 72 1021.4
20200401230423 45 319 1.0 5.0 0.00 0.00 0.00 71 1021.5
20200401224636 45 334 1.0 5.0 0.00 0.00 0.00 71 1021.5
20200401223158 45 308 2.0 5.0 0.00 0.00 0.00 70 1021.6
20200401221618 46 337 1.0 5.0 0.00 0.00 0.00 68 1021.7
20200401220144 46 309 1.0 4.0 0.00 0.00 0.00 65 1021.7
20200401214658 46 319 2.0 5.0 0.00 0.00 0.00 64 1021.9
20200401213154 46 355 0.0 2.0 0.00 0.00 0.00 62 1021.9
20200401211649 46 355 0.0 4.0 0.00 0.00 0.00 61 1022.0
20200401210152 47 340 3.0 5.0 0.00 0.00 0.00 60 1022.1
20200401204648 47 9 2.0 5.0 0.00 0.00 0.00 59 1021.9
20200401203223 47 360 1.0 4.0 0.00 0.00 0.00 59 1021.9
20200401201617 47 18 1.0 3.0 0.00 0.00 0.00 58 1022.0
20200401200120 47 15 2.0 5.0 0.00 0.00 0.00 57 1021.9
20200401194624 47 39 1.0 6.0 0.00 0.00 0.00 56 1022.0
20200401193213 47 27 1.0 5.0 0.00 0.00 0.00 55 1021.9
20200401191649 47 21 2.0 8.0 0.00 0.00 0.00 55 1021.9
20200401190053 47 61 3.0 11.0 0.00 0.00 0.00 55 1021.8
20200401184645 47 22 5.0 11.0 0.00 0.00 0.00 56 1021.8
20200401183132 48 17 3.0 6.0 0.00 0.00 0.00 57 1021.9
20200401181608 48 19 0.0 6.0 0.00 0.00 0.00 56 1021.8
20200401180130 48 5 3.0 10.0 0.00 0.00 0.00 55 1021.9
20200401174632 48 344 3.0 11.0 0.00 0.00 0.00 56 1021.9
20200401173058 48 36 3.0 8.0 0.00 0.00 0.00 56 1022.0
20200401171652 49 19 4.0 9.0 0.00 0.00 0.00 55 1022.0
20200401170203 49 348 2.0 10.0 0.00 0.00 0.00 54 1022.0
20200401164709 49 5 4.0 8.0 0.00 0.00 0.00 54 1022.0
20200401163110 49 355 2.0 9.0 0.00 0.00 0.00 54 1022.1
20200401161538 49 360 4.0 9.0 0.00 0.00 0.00 55 1022.3
20200401160046 49 355 2.0 11.0 0.00 0.00 0.00 56 1022.4
20200401154623 49 38 4.0 9.0 0.00 0.00 0.00 57 1022.6
20200401153104 49 39 4.0 12.0 0.00 0.00 0.00 57 1022.7
20200401151639 48 22 5.0 11.0 0.00 0.00 0.00 58 1022.9
20200401150037 49 26 7.0 13.0 0.00 0.00 0.00 57 1023.0
20200401144553 49 14 7.0 12.0 0.00 0.00 0.00 53 1023.1
20200401143024 50 25 5.0 11.0 0.00 0.00 0.00 52 1023.2
20200401141540 50 341 5.0 12.0 0.00 0.00 0.00 52 1023.3
20200401140028 50 355 3.0 12.0 0.00 0.00 0.00 53 1023.4
20200401134554 50 355 6.0 14.0 0.00 0.00 0.00 53 1023.4
20200401133044 51 22 3.0 12.0 0.00 0.00 0.00 52 1023.5
20200401131522 51 28 4.0 12.0 0.00 0.00 0.00 52 1023.6
20200401130021 51 30 6.0 12.0 0.00 0.00 0.00 51 1023.8
20200401124612 50 53 4.0 13.0 0.00 0.00 0.00 53 1023.8
20200401123021 51 347 6.0 14.0 0.00 0.00 0.00 53 1023.9
20200401121522 51 53 1.0 11.0 0.00 0.00 0.00 51 1024.0
20200401120110 51 11 4.0 10.0 0.00 0.00 0.00 50 1024.3
20200401114538 51 350 9.0 15.0 0.00 0.00 0.00 51 1024.3
20200401113008 50 32 6.0 14.0 0.00 0.00 0.00 52 1024.7
20200401111504 50 96 6.0 14.0 0.00 0.00 0.00 53 1024.8
20200401110001 50 84 9.0 15.0 0.00 0.00 0.00 53 1025.0
20200401104614 50 94 4.0 10.0 0.00 0.00 0.00 54 1025.2
20200401103135 49 29 3.0 9.0 0.00 0.00 0.00 56 1025.4